< < Back
Terminal Aerodrome Forecast


Current Version              Previous Versions:   1  2  3  4  5  6  7  8  9  

Terminal Aerodrome Forecast

329
FTUS44 KBMX 310500
TAFMGM
TAF
KMGM 310520Z 3106/0106 00000KT P6SM SCT250
     FM311800 12005KT P6SM BKN250=



Latest METAR

839
SAUS80 KWBC 311700 RRB
MTRMGM
METAR KMGM 311653Z 12008KT 10SM CLR 10/M05 A3039 RMK AO2 SLP291
T01001050


USA.gov is the U.S. government's official web portal to all federal, state and local government web resources and services.